Airfield :
LOGIN :

Register | Disclaimer

   EN    FR    IT 

 










Legend :    VFR   Marginal VFR   IFR   Intensive IFR   Very Intensive IFR
Visi :
Ceiling :
>= 8 km
>= 3000ft
5 to 8 km
1000 to 3000 ft
1500m to 5 km
500 to 1000 ft
800 to 1500m
200 to 500 ft
< 800m
< 200 ft
Symbols :   Thunderstorms  Fog  Heavy snow  Heavy precipitations  Wind > 20 kt
SIGMETs :     Misc.  Thunderstorms  Icing  Turbulence  Mountain Waves  Volcanic Ashes







- Airport Elevation : 1910 ft
- IATA code : RDZ
- Download approach charts


LFCR - Rodez

CURRENT METAR :
  • 221700Z AUTO 22003KT 3100 -SN BR OVC005 M00/M00 Q1005 TEMPO 1200 -SN

EXPIRED METARs :
  • 221630Z AUTO VRB03KT 2000 -SN BR OVC006 M00/M00 Q1005 TEMPO 1200 -SN BKN003
  • 221600Z AUTO 12003KT 1600 1300 R31/2000D -SN BR FEW004 OVC010 M00/M01 Q1005 TEMPO 1200 -SN BKN003
  • 221530Z AUTO 12004KT 1300 1200 R31/1800N -SN BR SCT004 OVC014 M00/M01 Q1005 TEMPO 2000 -SN BKN003
  • 221500Z AUTO 11004KT 1600 -SN BR FEW004 SCT014 BKN019 M00/M01 Q1006 TEMPO BKN003
  • 221430Z AUTO 13004KT 3100 -SN BR SCT014 BKN022 OVC030 M00/M01 Q1006 TEMPO 2000 -SN BKN003

TAF AMD TAF LFCR
Valid from the 22 at 15:00 until the 23 at 12:00 UTC


221541Z 2215/2312 VRB02KT 9999 OVC013
TEMPO 2215/2220 1200 -SN BKN003
BECMG 2218/2220 29008KT
BECMG 2220/2222 3000 BR BKN003
PROB30
TEMPO 2221/2302 0500 FG VV///
BECMG 2300/2302 VRB02KT
PROB30
TEMPO 2302/2307 2000 -SN OVC002
BECMG 2305/2307 25007KT
TEMPO 2307/2309 1200 -SN OVC002
BECMG 2310/2312 32012KT
No reported NOTAMs for that airfield.



MET'MAP, your aeronautical weather chart ! - Copyright ORBIFLY December 2007 - Disclaimer

ORBIFLY MET'MAP TEAM :

Programming & Development : Alexandra Zaïnal
Concept & Development : Baudouin d'Aumeries
Co-Development & Prog : Marc-Olivier Méhu
Technical & hardware support : Manuel Goepfert

Contact : metmap@orbifly.com




SOURCES & CREDITS :

   NOAA